Time;durP1;ratioP1;P1;durP2;ratioP2;P2;SDS_P1;SDS_P2;PMS_P1;PMS_P2;Temp;Humidity;BMP_temperature;BMP_pressure;BME280_temperature;BME280_humidity;BME280_pressure;Samples;Min_cycle;Max_cycle;Signal;HPM_P1;HPM_P2
2021/07/08 00:01:43;;;;;;;3.58;2.63;;;18.00;73.60;;;;;;5070820;28;20151;-80
2021/07/08 00:04:09;;;;;;;4.30;3.15;;;17.80;73.50;;;;;;5087884;28;20044;-80
2021/07/08 00:06:35;;;;;;;3.40;2.63;;;17.70;73.30;;;;;;5071228;28;20040;-79
2021/07/08 00:09:00;;;;;;;3.20;2.33;;;17.70;74.50;;;;;;5054697;28;20043;-79
2021/07/08 00:11:26;;;;;;;4.68;2.92;;;17.70;74.30;;;;;;5070093;28;20127;-80
2021/07/08 00:13:52;;;;;;;8.02;3.33;;;17.60;74.00;;;;;;5087677;28;20495;-80
2021/07/08 00:16:18;;;;;;;7.88;4.32;;;17.60;74.50;;;;;;5088290;28;20039;-80
2021/07/08 00:18:43;;;;;;;3.20;2.67;;;17.50;73.80;;;;;;5052271;28;20024;-81
2021/07/08 00:21:09;;;;;;;5.93;3.42;;;17.40;73.90;;;;;;5053457;28;20036;-79
2021/07/08 00:23:35;;;;;;;3.70;2.75;;;17.30;74.40;;;;;;5088397;28;20024;-80
2021/07/08 00:26:00;;;;;;;3.08;2.35;;;17.40;75.60;;;;;;5068567;28;20032;-81
2021/07/08 00:28:26;;;;;;;5.25;2.88;;;17.30;74.80;;;;;;5069656;28;20024;-80
2021/07/08 00:30:51;;;;;;;4.70;3.70;;;17.30;75.00;;;;;;5068985;28;20016;-80
2021/07/08 00:33:17;;;;;;;5.47;3.95;;;17.10;74.50;;;;;;5071366;28;20031;-79
2021/07/08 00:35:43;;;;;;;5.50;3.17;;;17.10;74.60;;;;;;5070666;28;20082;-81
2021/07/08 00:38:09;;;;;;;8.10;4.00;;;17.20;76.20;;;;;;5086383;28;20084;-81
2021/07/08 00:40:35;;;;;;;6.30;4.25;;;17.10;75.10;;;;;;5085644;27;20029;-81
2021/07/08 00:43:01;;;;;;;7.32;3.80;;;17.00;75.90;;;;;;5069616;28;20039;-81
2021/07/08 00:45:27;;;;;;;4.80;4.10;;;16.80;75.20;;;;;;5070012;28;20036;-81
2021/07/08 00:47:53;;;;;;;8.52;4.07;;;16.80;75.70;;;;;;5069900;28;20104;-80
2021/07/08 00:50:22;;;;;;;7.72;3.95;;;16.70;75.50;;;;;;5077017;28;20701;-81
2021/07/08 00:52:47;;;;;;;5.68;3.55;;;16.60;75.50;;;;;;5047777;28;20047;-80
2021/07/08 00:55:13;;;;;;;9.60;4.53;;;16.60;75.40;;;;;;5071683;28;20044;-82
2021/07/08 00:57:51;;;;;;;7.30;4.03;;;16.60;75.90;;;;;;5063368;28;20032;-80
2021/07/08 01:00:17;;;;;;;5.53;4.00;;;16.40;75.50;;;;;;5071841;28;20059;-79
2021/07/08 01:02:43;;;;;;;6.50;5.45;;;16.50;75.90;;;;;;5068442;28;20113;-80
2021/07/08 01:05:08;;;;;;;9.75;4.25;;;16.40;75.80;;;;;;5069316;28;20034;-80
2021/07/08 01:07:34;;;;;;;10.38;4.88;;;16.40;75.90;;;;;;5071195;28;20560;-81
2021/07/08 01:10:00;;;;;;;9.18;4.55;;;16.40;76.70;;;;;;5052901;28;20480;-81
2021/07/08 01:12:25;;;;;;;7.07;3.90;;;16.30;76.20;;;;;;5069929;28;20478;-82
2021/07/08 01:14:51;;;;;;;6.32;4.35;;;16.30;76.20;;;;;;5067451;28;20024;-80
2021/07/08 01:17:16;;;;;;;7.18;4.63;;;16.20;76.20;;;;;;5071165;28;20028;-80
2021/07/08 01:19:42;;;;;;;4.95;3.90;;;16.30;76.10;;;;;;5069680;28;20039;-80
2021/07/08 01:22:08;;;;;;;4.68;2.83;;;16.30;79.70;;;;;;5069967;28;20034;-80
2021/07/08 01:24:34;;;;;;;5.93;3.80;;;16.30;76.90;;;;;;5069915;28;20028;-81
2021/07/08 01:26:59;;;;;;;6.20;3.33;;;16.30;77.00;;;;;;5070274;28;20415;-80
2021/07/08 01:29:25;;;;;;;4.40;2.80;;;16.40;77.40;;;;;;5056574;28;20406;-80
2021/07/08 01:31:50;;;;;;;4.93;2.95;;;16.50;77.80;;;;;;5069261;28;20031;-81
2021/07/08 01:34:16;;;;;;;3.97;2.65;;;16.50;77.20;;;;;;5067454;28;20032;-80
2021/07/08 01:36:42;;;;;;;2.72;2.30;;;16.40;77.00;;;;;;5054489;28;20031;-80
2021/07/08 01:39:08;;;;;;;2.92;2.50;;;16.30;76.60;;;;;;5087772;28;20391;-80
2021/07/08 01:41:33;;;;;;;7.20;4.32;;;16.20;77.10;;;;;;5068539;28;20034;-80
2021/07/08 01:44:00;;;;;;;5.38;4.35;;;16.00;78.40;;;;;;5069629;28;20038;-80
2021/07/08 01:46:26;;;;;;;8.10;4.60;;;15.90;77.40;;;;;;5065436;28;20029;-80
2021/07/08 01:48:51;;;;;;;6.45;4.18;;;15.80;81.30;;;;;;5066035;28;20032;-80
2021/07/08 01:51:23;;;;;;;8.77;4.75;;;15.70;78.20;;;;;;5071733;28;20456;-80
2021/07/08 01:53:48;;;;;;;4.30;3.88;;;15.70;80.40;;;;;;5082495;28;20028;-81
2021/07/08 01:56:14;;;;;;;5.07;3.30;;;15.70;77.80;;;;;;5074399;28;20472;-81
2021/07/08 01:58:39;;;;;;;4.43;3.40;;;15.70;78.50;;;;;;5071385;28;20024;-80
2021/07/08 02:01:05;;;;;;;3.83;3.20;;;15.80;78.40;;;;;;5052550;28;20049;-80
2021/07/08 02:03:30;;;;;;;5.20;3.60;;;15.80;78.40;;;;;;5067344;28;20036;-81
2021/07/08 02:05:56;;;;;;;6.50;3.17;;;15.70;78.10;;;;;;5055421;28;20020;-80
2021/07/08 02:08:21;;;;;;;2.67;2.28;;;15.70;78.40;;;;;;5067874;28;20048;-80
2021/07/08 02:10:47;;;;;;;4.10;2.85;;;15.70;78.70;;;;;;5068031;28;20139;-81
2021/07/08 02:13:13;;;;;;;4.43;2.60;;;15.70;79.70;;;;;;5085762;28;20028;-81
2021/07/08 02:15:38;;;;;;;9.57;3.45;;;15.70;79.90;;;;;;5083335;28;20085;-81
2021/07/08 02:18:04;;;;;;;5.07;2.67;;;15.70;80.50;;;;;;5069855;28;20055;-80
2021/07/08 02:20:30;;;;;;;4.35;3.10;;;15.70;81.80;;;;;;5066676;28;20046;-80
2021/07/08 02:22:56;;;;;;;4.55;2.85;;;15.70;81.90;;;;;;5051087;28;20042;-82
2021/07/08 02:25:21;;;;;;;5.68;4.15;;;15.60;80.90;;;;;;5068801;28;20592;-81
2021/07/08 02:27:47;;;;;;;6.50;2.80;;;15.50;80.30;;;;;;5068391;28;20040;-80
2021/07/08 02:30:17;;;;;;;5.25;2.50;;;15.50;81.20;;;;;;5067988;28;20066;-80
2021/07/08 02:32:44;;;;;;;5.63;2.80;;;15.50;82.50;;;;;;5086661;28;20495;-79
2021/07/08 02:35:10;;;;;;;3.70;2.80;;;15.50;81.40;;;;;;5068775;28;20026;-81
2021/07/08 02:37:37;;;;;;;4.78;3.30;;;15.40;81.60;;;;;;5058643;28;20047;-80
2021/07/08 02:40:05;;;;;;;5.97;3.90;;;15.30;81.10;;;;;;5069124;28;20032;-80
2021/07/08 02:42:31;;;;;;;4.97;2.78;;;15.30;81.00;;;;;;5051722;28;20046;-80
2021/07/08 02:44:56;;;;;;;4.30;3.20;;;15.30;81.60;;;;;;5050674;28;20031;-81
2021/07/08 02:47:22;;;;;;;3.03;2.72;;;15.30;81.60;;;;;;5071392;28;20032;-81
2021/07/08 02:49:47;;;;;;;4.90;3.60;;;15.30;81.80;;;;;;5067524;28;20380;-79
2021/07/08 02:52:13;;;;;;;3.85;3.10;;;15.20;81.80;;;;;;5070049;28;20033;-80
2021/07/08 02:54:38;;;;;;;7.80;4.22;;;15.20;82.10;;;;;;5074851;28;20035;-81
2021/07/08 02:57:04;;;;;;;7.72;4.45;;;15.30;85.50;;;;;;5049589;28;20024;-80
2021/07/08 02:59:30;;;;;;;4.53;3.83;;;15.10;81.00;;;;;;5069358;28;20085;-80
2021/07/08 03:01:55;;;;;;;9.07;4.90;;;14.90;80.60;;;;;;5054771;28;20104;-82
2021/07/08 03:04:21;;;;;;;5.95;3.55;;;15.00;80.80;;;;;;5072440;28;20035;-80
2021/07/08 03:06:46;;;;;;;5.03;2.95;;;15.00;81.50;;;;;;5071854;28;20032;-80
2021/07/08 03:09:12;;;;;;;8.43;4.00;;;15.00;82.60;;;;;;5073801;28;20057;-80
2021/07/08 03:11:37;;;;;;;3.90;3.17;;;15.00;82.70;;;;;;5087994;28;20468;-79
2021/07/08 03:14:03;;;;;;;4.68;3.47;;;14.90;83.30;;;;;;5055532;28;20028;-81
2021/07/08 03:16:29;;;;;;;4.95;3.25;;;15.00;82.10;;;;;;5087031;28;20089;-80
2021/07/08 03:18:54;;;;;;;5.95;3.05;;;15.00;81.90;;;;;;5070651;28;20028;-78
2021/07/08 03:21:20;;;;;;;3.53;2.78;;;15.10;83.30;;;;;;5054750;28;20363;-81
2021/07/08 03:23:45;;;;;;;4.43;3.10;;;15.10;83.70;;;;;;5087079;28;20032;-81
2021/07/08 03:26:11;;;;;;;7.20;3.60;;;15.00;82.80;;;;;;5055571;28;20026;-80
2021/07/08 03:28:37;;;;;;;7.30;3.65;;;14.90;82.00;;;;;;5071320;28;20028;-79
2021/07/08 03:31:02;;;;;;;7.15;4.13;;;14.80;83.00;;;;;;5071619;28;20439;-80
2021/07/08 03:33:28;;;;;;;6.75;4.53;;;14.70;85.30;;;;;;5069709;28;20446;-79
2021/07/08 03:35:53;;;;;;;4.72;4.00;;;14.50;83.20;;;;;;5070617;28;20020;-81
2021/07/08 03:38:19;;;;;;;8.88;4.47;;;14.40;85.30;;;;;;5086820;28;20039;-80
2021/07/08 03:40:44;;;;;;;6.82;4.85;;;14.50;84.30;;;;;;5088483;28;20028;-79
2021/07/08 03:43:10;;;;;;;11.55;4.80;;;14.30;90.00;;;;;;5055631;28;20040;-80
2021/07/08 03:45:35;;;;;;;6.47;5.00;;;14.40;91.90;;;;;;5068518;28;20107;-80
2021/07/08 03:48:01;;;;;;;6.95;5.00;;;14.40;92.40;;;;;;5070932;28;20101;-81
2021/07/08 03:50:27;;;;;;;6.70;4.32;;;14.30;90.70;;;;;;5082359;28;20035;-80
2021/07/08 03:52:52;;;;;;;5.82;3.45;;;14.40;89.30;;;;;;5070145;28;20048;-79
2021/07/08 03:55:19;;;;;;;6.40;3.60;;;14.60;87.90;;;;;;5069354;28;20052;-77
2021/07/08 03:57:57;;;;;;;5.10;3.10;;;14.70;88.00;;;;;;5052606;28;20480;-78
2021/07/08 04:00:27;;;;;;;5.40;3.78;;;14.60;86.80;;;;;;5085146;28;20122;-78
2021/07/08 04:02:53;;;;;;;4.70;3.80;;;14.70;87.40;;;;;;5075811;28;20566;-78
2021/07/08 04:05:19;;;;;;;6.88;4.35;;;14.60;87.70;;;;;;5073661;28;20028;-79
2021/07/08 04:07:45;;;;;;;9.32;4.53;;;14.60;90.20;;;;;;5091613;28;20043;-79
2021/07/08 04:10:11;;;;;;;5.28;3.92;;;14.40;88.60;;;;;;5054569;28;20487;-80
2021/07/08 04:12:36;;;;;;;4.70;3.58;;;14.50;88.10;;;;;;5068332;28;20028;-78
2021/07/08 04:15:03;;;;;;;13.32;5.72;;;14.50;88.40;;;;;;5054225;28;20028;-78
2021/07/08 04:17:28;;;;;;;6.10;3.85;;;14.50;87.40;;;;;;5089960;28;20028;-78
2021/07/08 04:19:54;;;;;;;5.97;4.50;;;14.40;88.50;;;;;;5087470;28;20397;-78
2021/07/08 04:22:19;;;;;;;13.45;4.38;;;14.50;87.80;;;;;;5070890;28;20028;-78
2021/07/08 04:24:45;;;;;;;5.97;3.92;;;14.40;87.30;;;;;;5068644;28;20024;-78
2021/07/08 04:27:10;;;;;;;3.83;3.33;;;14.50;89.60;;;;;;5055200;28;20040;-81
2021/07/08 04:29:36;;;;;;;6.78;4.75;;;14.50;90.20;;;;;;5086019;28;20081;-79
2021/07/08 04:32:01;;;;;;;5.10;3.85;;;14.60;89.50;;;;;;5070633;28;20027;-79
2021/07/08 04:34:27;;;;;;;12.98;4.97;;;14.60;89.70;;;;;;5071540;28;20035;-80
2021/07/08 04:36:52;;;;;;;6.72;4.50;;;14.60;90.50;;;;;;5088465;28;20031;-79
2021/07/08 04:39:18;;;;;;;7.47;5.50;;;14.60;89.80;;;;;;5084423;28;20028;-79
2021/07/08 04:41:44;;;;;;;11.70;5.07;;;14.50;87.80;;;;;;5071589;28;20381;-79
2021/07/08 04:44:09;;;;;;;6.95;5.82;;;14.50;88.60;;;;;;5070545;28;20036;-80
2021/07/08 04:46:35;;;;;;;12.40;5.93;;;14.40;88.60;;;;;;5068612;28;20035;-79
2021/07/08 04:49:00;;;;;;;7.28;6.00;;;14.40;89.30;;;;;;5051608;28;20110;-79
2021/07/08 04:51:26;;;;;;;7.53;5.95;;;14.60;90.00;;;;;;5067995;28;20438;-79
2021/07/08 04:53:51;;;;;;;5.90;5.30;;;14.80;89.60;;;;;;5055484;28;20043;-79
2021/07/08 04:56:17;;;;;;;8.43;5.28;;;14.90;88.40;;;;;;5087215;28;20032;-78
2021/07/08 04:58:42;;;;;;;11.75;5.53;;;15.00;90.20;;;;;;5073926;28;20391;-79
2021/07/08 05:01:08;;;;;;;6.72;5.63;;;15.20;88.00;;;;;;5069792;28;20032;-79
2021/07/08 05:03:34;;;;;;;12.20;5.80;;;15.10;88.80;;;;;;5090460;28;20384;-83
2021/07/08 05:09:12;;;;;;;9.18;5.55;;;15.20;90.20;;;;;;5056618;28;20051;-83
2021/07/08 05:11:37;;;;;;;7.40;5.43;;;15.30;89.90;;;;;;5072310;28;20036;-82
2021/07/08 05:14:03;;;;;;;5.88;5.25;;;15.40;89.70;;;;;;5051243;28;20027;-83
2021/07/08 05:16:28;;;;;;;13.48;4.95;;;15.40;90.60;;;;;;5069330;28;20048;-83
2021/07/08 05:18:54;;;;;;;9.63;6.00;;;15.50;90.00;;;;;;5065736;28;20769;-83
2021/07/08 05:21:19;;;;;;;5.45;3.75;;;15.60;89.20;;;;;;5086401;28;20032;-83
2021/07/08 05:23:45;;;;;;;7.60;4.10;;;15.70;89.70;;;;;;5070065;28;20387;-83
2021/07/08 05:26:11;;;;;;;9.60;5.22;;;15.70;89.10;;;;;;5050797;28;20023;-83
2021/07/08 05:28:36;;;;;;;6.18;5.05;;;15.90;87.90;;;;;;5086650;28;20511;-83
2021/07/08 05:31:02;;;;;;;8.07;3.55;;;15.90;87.80;;;;;;5065233;28;20478;-83
2021/07/08 05:33:27;;;;;;;3.50;2.95;;;16.00;87.70;;;;;;5052744;28;20032;-82
2021/07/08 05:35:53;;;;;;;8.20;4.97;;;16.10;86.40;;;;;;5068363;28;20024;-82
2021/07/08 05:38:18;;;;;;;4.25;3.83;;;16.00;85.70;;;;;;5085594;28;20043;-83
2021/07/08 05:40:44;;;;;;;5.95;4.85;;;16.10;85.00;;;;;;5086670;28;20028;-82
2021/07/08 05:43:10;;;;;;;9.95;5.38;;;16.20;85.20;;;;;;5068361;28;20388;-82
2021/07/08 05:45:35;;;;;;;7.95;5.85;;;16.30;84.90;;;;;;5070217;28;20028;-81
2021/07/08 05:48:01;;;;;;;15.35;6.57;;;16.30;84.50;;;;;;5050763;28;20032;-82
2021/07/08 05:50:27;;;;;;;8.43;5.75;;;16.40;84.40;;;;;;5068007;28;20032;-82
2021/07/08 05:52:52;;;;;;;5.68;5.15;;;16.50;85.00;;;;;;5069898;28;20024;-82
2021/07/08 05:55:18;;;;;;;8.52;5.07;;;16.60;84.90;;;;;;5069498;28;20024;-82
2021/07/08 05:57:49;;;;;;;8.23;5.68;;;16.60;85.00;;;;;;5048595;28;20032;-83
2021/07/08 06:00:16;;;;;;;5.95;3.53;;;16.80;84.80;;;;;;5071492;28;20391;-83
2021/07/08 06:02:41;;;;;;;7.60;3.60;;;16.80;84.00;;;;;;5067411;28;20032;-83
2021/07/08 06:05:07;;;;;;;7.75;4.63;;;16.90;84.10;;;;;;5068233;28;20032;-82
2021/07/08 06:07:33;;;;;;;9.00;4.85;;;17.00;83.70;;;;;;5053944;28;20119;-82
2021/07/08 06:09:58;;;;;;;6.63;4.07;;;17.10;83.50;;;;;;5066037;28;20074;-83
2021/07/08 06:12:25;;;;;;;9.27;4.95;;;17.20;83.30;;;;;;5068308;28;20483;-82
2021/07/08 06:14:50;;;;;;;10.25;5.25;;;17.30;84.00;;;;;;5064376;28;20115;-81
2021/07/08 06:17:16;;;;;;;7.97;5.30;;;17.40;85.80;;;;;;5069874;28;20036;-82
2021/07/08 06:19:42;;;;;;;11.75;5.25;;;17.40;86.70;;;;;;5067720;28;20074;-83
2021/07/08 06:22:07;;;;;;;10.65;4.80;;;17.60;87.70;;;;;;5051240;28;20111;-82
2021/07/08 06:24:33;;;;;;;10.02;4.68;;;17.70;88.20;;;;;;5050812;28;20111;-83
2021/07/08 06:26:58;;;;;;;6.15;4.18;;;17.90;88.30;;;;;;5051533;28;20051;-82
2021/07/08 06:29:24;;;;;;;3.75;3.33;;;18.00;88.30;;;;;;5067380;28;20024;-83
2021/07/08 06:31:50;;;;;;;4.57;3.15;;;18.20;88.20;;;;;;5082738;28;20070;-83
2021/07/08 06:34:15;;;;;;;5.40;2.90;;;18.30;88.30;;;;;;5062124;28;20055;-83
2021/07/08 06:36:41;;;;;;;7.55;4.78;;;18.40;88.50;;;;;;5065397;28;20396;-82
2021/07/08 06:39:06;;;;;;;4.38;3.45;;;18.60;88.90;;;;;;5087334;28;20039;-83
2021/07/08 06:41:32;;;;;;;7.25;3.63;;;18.70;89.30;;;;;;5050745;28;20109;-82
2021/07/08 06:43:58;;;;;;;4.75;3.58;;;18.80;89.00;;;;;;5081896;28;20039;-83
2021/07/08 06:46:28;;;;;;;6.18;4.32;;;18.90;88.50;;;;;;5068923;27;20181;-83
2021/07/08 06:48:53;;;;;;;9.82;4.20;;;19.10;89.80;;;;;;5049987;28;20038;-84
2021/07/08 06:51:19;;;;;;;4.65;3.42;;;19.30;89.10;;;;;;5068141;28;20027;-83
2021/07/08 06:53:44;;;;;;;5.70;3.45;;;19.40;89.00;;;;;;5072963;28;20118;-83
2021/07/08 06:56:10;;;;;;;6.60;3.38;;;19.50;88.90;;;;;;5051490;28;20431;-84
2021/07/08 06:58:35;;;;;;;3.70;3.05;;;19.70;87.80;;;;;;5072667;28;20036;-83
2021/07/08 07:01:01;;;;;;;3.90;2.63;;;19.90;88.70;;;;;;5051688;28;20054;-83
2021/07/08 07:03:27;;;;;;;7.18;3.80;;;19.90;84.90;;;;;;5068520;28;20050;-83
2021/07/08 07:05:53;;;;;;;6.63;3.20;;;20.00;86.60;;;;;;5053457;28;20035;-83
2021/07/08 07:08:18;;;;;;;4.05;3.38;;;20.50;88.80;;;;;;5066409;28;20044;-83
2021/07/08 07:10:44;;;;;;;5.53;2.80;;;20.60;88.50;;;;;;5083755;28;20031;-84
2021/07/08 07:13:10;;;;;;;4.47;3.45;;;20.80;88.40;;;;;;5066707;28;20025;-84
2021/07/08 07:15:36;;;;;;;4.70;3.30;;;21.10;89.20;;;;;;5068959;28;20397;-84
2021/07/08 07:18:04;;;;;;;3.50;3.03;;;21.40;88.70;;;;;;5067685;28;20043;-84
2021/07/08 07:20:29;;;;;;;5.53;3.38;;;21.60;88.40;;;;;;5067674;28;20036;-84
2021/07/08 07:22:55;;;;;;;6.03;3.20;;;21.90;88.50;;;;;;5082944;28;20081;-84
2021/07/08 07:25:22;;;;;;;3.65;2.33;;;22.30;89.30;;;;;;5067857;27;20452;-84
2021/07/08 07:27:52;;;;;;;7.28;3.20;;;22.50;84.20;;;;;;5084835;28;20020;-84
2021/07/08 07:30:18;;;;;;;5.60;2.90;;;22.60;87.30;;;;;;5066987;28;20151;-84
2021/07/08 07:32:44;;;;;;;4.30;3.10;;;23.20;88.90;;;;;;5067506;28;20119;-84
2021/07/08 07:35:13;;;;;;;5.65;3.08;;;23.40;88.40;;;;;;5069996;28;20099;-84
2021/07/08 07:37:39;;;;;;;5.80;3.00;;;23.80;88.00;;;;;;5059244;28;20484;-83
2021/07/08 07:40:05;;;;;;;5.15;2.78;;;24.10;86.50;;;;;;5066992;28;20553;-84
2021/07/08 07:42:31;;;;;;;7.63;3.28;;;24.30;86.30;;;;;;5068113;27;20036;-84
2021/07/08 07:44:56;;;;;;;7.07;3.35;;;24.50;86.40;;;;;;5049343;28;20050;-84
2021/07/08 07:47:23;;;;;;;8.25;3.15;;;25.00;86.20;;;;;;5068204;28;20032;-84
2021/07/08 07:49:49;;;;;;;11.20;3.35;;;25.20;85.30;;;;;;5068868;28;20030;-84
2021/07/08 07:52:16;;;;;;;5.40;2.78;;;25.60;85.50;;;;;;5087401;28;20024;-84
2021/07/08 07:54:41;;;;;;;5.03;2.95;;;26.00;82.90;;;;;;5088205;28;20032;-84
2021/07/08 07:57:08;;;;;;;2.88;2.53;;;26.20;82.50;;;;;;5069754;28;20043;-84
2021/07/08 07:59:37;;;;;;;4.75;2.70;;;26.60;82.80;;;;;;5094696;28;20387;-84
2021/07/08 08:02:03;;;;;;;8.00;2.92;;;26.90;80.60;;;;;;5071703;28;20116;-84
2021/07/08 08:04:30;;;;;;;7.30;2.70;;;27.20;79.20;;;;;;5071002;27;20036;-84
2021/07/08 08:09:41;;;;;;;2.85;2.10;;;27.70;78.20;;;;;;5091080;27;20097;-84
2021/07/08 08:12:07;;;;;;;4.45;2.13;;;27.90;75.20;;;;;;5069520;28;20450;-84
2021/07/08 08:14:32;;;;;;;2.40;1.92;;;28.00;74.90;;;;;;5069238;28;20037;-84
2021/07/08 08:16:58;;;;;;;2.78;1.75;;;28.20;73.90;;;;;;5052370;28;20533;-84
2021/07/08 08:19:24;;;;;;;5.70;2.10;;;28.40;73.60;;;;;;5069075;28;20085;-85
2021/07/08 08:21:50;;;;;;;3.42;1.77;;;28.60;73.10;;;;;;5069070;28;20071;-85
2021/07/08 08:24:15;;;;;;;6.72;1.75;;;28.90;72.30;;;;;;5067991;28;20136;-86
2021/07/08 08:26:41;;;;;;;2.83;1.70;;;29.20;70.70;;;;;;5054859;28;20031;-85
2021/07/08 08:29:06;;;;;;;3.63;1.90;;;29.60;69.80;;;;;;5068157;28;20024;-85
2021/07/08 08:31:32;;;;;;;2.85;1.80;;;29.70;68.60;;;;;;5070746;28;20407;-86
2021/07/08 08:33:57;;;;;;;2.63;1.70;;;30.10;68.60;;;;;;5070669;28;20027;-87
2021/07/08 08:36:23;;;;;;;2.08;1.23;;;30.40;69.20;;;;;;5069825;28;20036;-86
2021/07/08 08:38:48;;;;;;;4.07;2.47;;;30.30;67.40;;;;;;5069306;28;20176;-87
2021/07/08 08:41:14;;;;;;;3.95;2.17;;;30.80;67.60;;;;;;5071500;28;20539;-85
2021/07/08 08:43:40;;;;;;;3.22;1.60;;;31.10;65.70;;;;;;5070729;28;20025;-86
2021/07/08 08:46:05;;;;;;;3.70;1.75;;;31.20;63.60;;;;;;5066023;28;20416;-85
2021/07/08 08:48:31;;;;;;;2.45;1.60;;;31.40;62.60;;;;;;5054422;28;20016;-83
2021/07/08 08:50:57;;;;;;;2.10;1.70;;;31.60;62.40;;;;;;5068236;28;20023;-85
2021/07/08 08:53:22;;;;;;;2.15;1.70;;;31.70;60.20;;;;;;5065152;28;20468;-85
2021/07/08 08:55:48;;;;;;;2.40;1.30;;;31.80;59.50;;;;;;5069960;28;20027;-84
2021/07/08 08:58:16;;;;;;;2.55;1.42;;;32.10;58.20;;;;;;5069252;28;20107;-79
2021/07/08 09:00:43;;;;;;;3.50;1.70;;;32.40;56.40;;;;;;5055036;28;20427;-83
2021/07/08 09:03:14;;;;;;;4.43;1.50;;;32.60;56.60;;;;;;5085863;28;20035;-84
2021/07/08 09:05:44;;;;;;;4.15;2.00;;;32.70;55.80;;;;;;5090514;28;20036;-83
2021/07/08 09:08:21;;;;;;;3.17;1.83;;;32.80;56.20;;;;;;5066651;28;20508;-84
2021/07/08 09:11:01;;;;;;;4.15;1.90;;;33.00;55.10;;;;;;5085763;28;20031;-82
2021/07/08 09:13:27;;;;;;;5.15;1.70;;;33.10;56.00;;;;;;5090256;28;20082;-83
2021/07/08 09:15:53;;;;;;;2.60;1.52;;;33.20;56.20;;;;;;5066786;28;20028;-83
2021/07/08 09:18:18;;;;;;;3.13;1.60;;;33.10;54.40;;;;;;5080331;28;20480;-82
2021/07/08 09:20:44;;;;;;;2.47;1.30;;;33.20;55.00;;;;;;5071200;28;20086;-81
2021/07/08 09:23:13;;;;;;;6.38;1.90;;;33.60;53.70;;;;;;5067290;28;20440;-82
2021/07/08 09:25:38;;;;;;;2.47;1.90;;;33.70;52.80;;;;;;5068746;27;20036;-82
2021/07/08 09:28:11;;;;;;;2.25;1.52;;;33.90;51.70;;;;;;5068231;28;20031;-81
2021/07/08 09:30:36;;;;;;;2.17;1.70;;;34.10;51.30;;;;;;5084476;28;20442;-80
2021/07/08 09:33:02;;;;;;;4.53;2.60;;;34.20;51.70;;;;;;5067191;28;20107;-79
2021/07/08 09:35:35;;;;;;;9.38;2.65;;;34.40;50.10;;;;;;5085242;28;20032;-79
2021/07/08 09:38:11;;;;;;;4.00;1.33;;;34.50;51.10;;;;;;5068684;28;20040;-79
2021/07/08 09:40:37;;;;;;;3.97;1.98;;;34.80;49.90;;;;;;5059952;28;20114;-77
2021/07/08 09:43:02;;;;;;;3.85;1.80;;;34.70;50.40;;;;;;5068720;28;20135;-78
2021/07/08 09:45:28;;;;;;;5.82;1.80;;;35.10;49.20;;;;;;5052127;28;20040;-78
2021/07/08 09:48:07;;;;;;;4.60;2.42;;;35.20;48.60;;;;;;5084407;28;20059;-77
2021/07/08 09:50:32;;;;;;;3.67;1.75;;;35.50;47.30;;;;;;5082499;28;20024;-77
2021/07/08 09:53:10;;;;;;;2.67;1.65;;;35.60;47.90;;;;;;5084280;28;20032;-78
2021/07/08 09:58:30;;;;;;;6.32;2.03;;;35.50;48.30;;;;;;5087594;28;20394;-77
2021/07/08 10:00:56;;;;;;;4.55;1.83;;;35.80;47.80;;;;;;5069286;28;20067;-77
2021/07/08 10:03:22;;;;;;;2.70;1.65;;;35.70;47.40;;;;;;5073183;28;20600;-77
2021/07/08 10:05:47;;;;;;;1.95;1.50;;;35.80;48.40;;;;;;5088772;28;20122;-76
2021/07/08 10:08:13;;;;;;;3.90;2.15;;;35.80;48.30;;;;;;5082936;28;20046;-76
2021/07/08 10:10:39;;;;;;;2.65;1.30;;;35.60;48.00;;;;;;5087699;28;20024;-76
2021/07/08 10:13:06;;;;;;;3.50;1.65;;;35.60;48.20;;;;;;5070333;28;20201;-76
2021/07/08 10:15:33;;;;;;;2.92;1.60;;;35.70;47.20;;;;;;5086632;27;20089;-76
2021/07/08 10:17:59;;;;;;;4.70;1.65;;;35.80;46.20;;;;;;5065845;28;20505;-76
2021/07/08 10:20:25;;;;;;;4.82;2.22;;;35.70;46.10;;;;;;5051730;28;20115;-77
2021/07/08 10:22:50;;;;;;;2.88;1.95;;;35.80;46.10;;;;;;5084235;28;20525;-76
2021/07/08 10:25:16;;;;;;;3.15;2.08;;;35.50;46.90;;;;;;5085197;28;20024;-76
2021/07/08 10:27:43;;;;;;;3.53;1.45;;;35.60;46.50;;;;;;5085379;28;20445;-76
2021/07/08 10:30:09;;;;;;;3.05;2.00;;;35.60;46.50;;;;;;5085324;28;20036;-77
2021/07/08 10:32:35;;;;;;;4.60;2.22;;;35.70;46.70;;;;;;5056412;28;20496;-77
2021/07/08 10:35:00;;;;;;;2.35;1.70;;;35.70;46.60;;;;;;5083057;28;20031;-77
2021/07/08 10:37:26;;;;;;;6.03;2.05;;;35.70;46.50;;;;;;5084326;28;20412;-77
2021/07/08 10:39:54;;;;;;;2.70;1.60;;;35.60;45.30;;;;;;5080219;28;20554;-77
2021/07/08 10:42:47;;;;;;;4.10;1.90;;;35.60;45.60;;;;;;5088712;28;20089;-77
2021/07/08 10:45:22;;;;;;;5.60;2.10;;;35.50;45.80;;;;;;5067082;28;20670;-76
2021/07/08 10:47:50;;;;;;;2.97;2.05;;;35.50;45.80;;;;;;5083388;28;20040;-77
2021/07/08 10:50:38;;;;;;;7.05;2.50;;;35.40;45.50;;;;;;5082789;28;20039;-76
2021/07/08 10:53:16;;;;;;;4.63;2.75;;;35.40;45.00;;;;;;5084132;28;20028;-77
2021/07/08 10:55:43;;;;;;;5.10;2.85;;;35.10;45.40;;;;;;5081933;28;20032;-76
2021/07/08 10:59:02;;;;;;;3.28;1.92;;;34.90;45.40;;;;;;5066219;28;20600;-76
2021/07/08 11:01:48;;;;;;;3.85;1.70;;;34.70;46.40;;;;;;4977926;28;20105;-76
2021/07/08 11:04:14;;;;;;;;;;;34.50;46.70;;;;;;5066623;28;20535;-76
2021/07/08 11:06:41;;;;;;;4.68;2.10;;;34.50;46.70;;;;;;5087598;28;20111;-76
2021/07/08 11:09:16;;;;;;;2.97;2.00;;;34.40;47.10;;;;;;5068811;28;20040;-75
2021/07/08 11:11:45;;;;;;;5.88;2.00;;;34.30;47.80;;;;;;5089517;28;20048;-76
2021/07/08 11:14:19;;;;;;;4.00;2.15;;;34.20;48.30;;;;;;5086044;28;20131;-77
2021/07/08 11:17:01;;;;;;;3.35;1.98;;;34.30;47.60;;;;;;5085841;28;20476;-76
2021/07/08 11:19:27;;;;;;;3.38;1.70;;;34.30;47.70;;;;;;5084260;28;20044;-77
2021/07/08 11:22:01;;;;;;;3.80;2.00;;;34.20;48.10;;;;;;5070083;28;20032;-76
2021/07/08 11:24:31;;;;;;;3.45;1.75;;;34.50;46.60;;;;;;5084114;28;20036;-75
2021/07/08 11:26:58;;;;;;;3.50;1.65;;;34.70;46.90;;;;;;5088785;28;20039;-76
2021/07/08 11:29:46;;;;;;;3.03;1.67;;;34.70;47.00;;;;;;5088955;27;20498;-76
2021/07/08 11:32:31;;;;;;;5.18;2.05;;;34.90;45.50;;;;;;5089939;27;20032;-76
2021/07/08 11:35:05;;;;;;;4.85;2.17;;;34.90;45.30;;;;;;5085971;28;20077;-75
2021/07/08 11:37:44;;;;;;;2.67;1.83;;;35.20;45.00;;;;;;5060989;28;20047;-76
2021/07/08 11:40:11;;;;;;;3.28;1.77;;;35.30;46.00;;;;;;5075682;28;20039;-76
2021/07/08 11:42:37;;;;;;;5.28;2.03;;;35.40;44.20;;;;;;5071174;28;20123;-76
2021/07/08 11:45:17;;;;;;;3.45;1.70;;;35.30;44.30;;;;;;5072158;28;20040;-76
2021/07/08 11:47:43;;;;;;;3.72;1.90;;;35.40;45.20;;;;;;5073102;27;20020;-76
2021/07/08 11:50:25;;;;;;;5.78;2.13;;;35.60;44.00;;;;;;5087919;28;20031;-77
2021/07/08 11:53:14;;;;;;;4.00;1.88;;;35.80;44.50;;;;;;5066234;28;20750;-77
2021/07/08 11:55:49;;;;;;;7.38;1.55;;;36.00;44.00;;;;;;5071362;28;20039;-77
2021/07/08 11:58:21;;;;;;;3.80;1.83;;;36.20;44.60;;;;;;5088524;28;20492;-77
2021/07/08 12:00:47;;;;;;;4.43;1.90;;;36.20;45.30;;;;;;5072594;28;20031;-77
2021/07/08 12:03:23;;;;;;;3.10;1.95;;;36.10;45.50;;;;;;5089738;28;20028;-77
2021/07/08 12:05:50;;;;;;;4.05;1.83;;;36.30;45.30;;;;;;5078041;28;20363;-77
2021/07/08 12:08:20;;;;;;;2.95;1.75;;;36.50;44.30;;;;;;5087350;28;20119;-77
2021/07/08 12:10:47;;;;;;;5.40;1.88;;;36.60;43.80;;;;;;5066915;28;20047;-76
2021/07/08 12:13:16;;;;;;;7.03;2.40;;;36.60;44.60;;;;;;5087190;28;20568;-77
2021/07/08 12:15:41;;;;;;;5.28;2.60;;;36.70;44.20;;;;;;5090162;28;20095;-75
2021/07/08 12:18:07;;;;;;;6.53;2.40;;;36.90;43.50;;;;;;5087624;28;20046;-76
2021/07/08 12:20:36;;;;;;;6.03;2.70;;;36.80;43.70;;;;;;5088295;28;20036;-77
2021/07/08 12:23:03;;;;;;;5.10;2.50;;;36.80;44.30;;;;;;5087361;28;20558;-77
2021/07/08 12:25:29;;;;;;;4.80;2.70;;;36.70;44.70;;;;;;5064998;28;20032;-77
2021/07/08 12:27:56;;;;;;;3.38;2.20;;;36.30;44.80;;;;;;5071543;28;20484;-76
2021/07/08 12:30:29;;;;;;;4.85;2.70;;;36.30;46.10;;;;;;5070887;28;20024;-77
2021/07/08 12:33:06;;;;;;;4.22;2.40;;;36.50;45.60;;;;;;5054050;28;20036;-77
2021/07/08 12:35:50;;;;;;;6.47;3.40;;;36.50;44.50;;;;;;5088038;27;20032;-77
2021/07/08 12:38:18;;;;;;;7.82;3.10;;;36.60;44.90;;;;;;5085446;27;20361;-78
2021/07/08 12:40:45;;;;;;;3.97;2.40;;;36.80;44.50;;;;;;5056017;28;20430;-77
2021/07/08 12:43:13;;;;;;;6.18;3.20;;;36.50;45.30;;;;;;5072839;28;20059;-77
2021/07/08 12:45:39;;;;;;;6.60;3.30;;;36.60;45.70;;;;;;5073462;28;20393;-77
2021/07/08 12:48:10;;;;;;;5.03;3.03;;;36.50;43.90;;;;;;5070617;28;20028;-77
2021/07/08 12:50:37;;;;;;;6.50;2.67;;;36.50;44.90;;;;;;5053081;27;20077;-77
2021/07/08 12:53:04;;;;;;;8.15;2.75;;;36.60;44.30;;;;;;5090085;28;20040;-77
2021/07/08 12:55:37;;;;;;;3.22;2.30;;;36.40;44.20;;;;;;5087228;28;20495;-76